Temecula, CA

1:38 AM PST on January 21, 2017 (GMT -0800)
Chardonnay Hills | | Change Station
Active Advisory: Gale Warning

Elev 1200 ft 33.53 °N, 117.11 °W | Updated 24 seconds ago

Clear
Clear
45.9 °F
Feels Like 46 °F
N
0.0
Wind Variable Wind from SSW
Gusts 0.0 mph

Today
High -- | Low -- °F
--% Chance of Precip.
Yesterday
High -- | Low -- °F
Precip. -- in
Pressure 29.62 in
Visibility 10.0 miles
Clouds Clear
Windchill 46 °F
Dew Point 41 °F
Humidity 82%
Rainfall 0.00 in
Snow Depth Not available.
6:50 AM 5:09 PM
Last Quarter, 36% visible
METAR KF70 210915Z AUTO 28011G20KT 10SM CLR 08/02 A2962 RMK AO1
Pressure 29.62 in
Visibility 10.0 miles
Clouds Clear
Windchill 46 °F
Dew Point 41 °F
Humidity 82%
Rainfall 0.00 in
Snow Depth Not available.
6:50 AM 5:09 PM
Last Quarter, 36% visible
METAR KF70 210915Z AUTO 28011G20KT 10SM CLR 08/02 A2962 RMK AO1

Get Your Daily Forecast Email!

Thanks for signing up!

Be on the lookout for a verification email in your inbox.

You'll start receiving the daily forecast at 8 AM.

×

10-Day Weather Forecast

Almanac

Astronomy

Jan. 21, 2017 Rise Set
Actual Time
Civil Twilight
Nautical Twilight
Astronomical Twilight
Moon
Length of Visible Light
Length of Day
Tomorrow will be .
, % of the Moon is Illuminated

Today's Extremes

State Highs State Lows

Community

WunderPhotos

Upload Photos

1,962,540 photos uploaded!

WunderBlog® & News

Nearby

Air Quality

  Air Quality AQ Index Pollutant
Not available.

Snow Depth

Station Depth Elevation

Earthquake Activity

City Distance Mag. Time & Date
Minimum magnitude displayed is 2.5.

Coastal Water Temperatures

Place Temperature

Stations

Nearby Weather Stations

Station Location Temp. Windchill Dew Point Humidity Wind Precip. Elev Updated Type
                   

Watches & Warnings

Gale Warning
Issued: 7:37 PM PST Jan. 20, 2017 – National Weather Service

... Gale Warning remains in effect until 4 PM PST Saturday...

* winds... southwest to west winds 20 to 30 kt with gusts to 35 kt. Winds
will diminish quickly Saturday afternoon.

* Waves/seas... combined seas 12 to 18 feet tonight and
Saturday... then seas lowering to 8 to 13 feet by Saturday night.

* Outlook... another period of strong winds and large seas Sunday
through Monday... with winds possibly reaching gale force late
Sunday.

Precautionary/preparedness actions...

A Gale Warning means winds of 34 to 47 knots are imminent or
occurring. Operating a vessel in gale conditions requires
experience and properly equipped vessels. It is highly
recommended that mariners without the proper experience seek safe
Harbor prior to the onset of gale conditions.



Moede